Time;durP1;ratioP1;P1;durP2;ratioP2;P2;SDS_P1;SDS_P2;PMS_P1;PMS_P2;Temp;Humidity;BMP_temperature;BMP_pressure;BME280_temperature;BME280_humidity;BME280_pressure;Samples;Min_cycle;Max_cycle;Signal;HPM_P1;HPM_P2
2023/03/21 00:00:29;;;;;;;8.50;5.45;;;9.10;99.90;;;;;;5072780;28;20484;-66
2023/03/21 00:02:55;;;;;;;9.23;5.20;;;9.10;99.90;;;;;;5072810;28;20037;-66
2023/03/21 00:05:21;;;;;;;8.90;5.20;;;9.10;99.90;;;;;;5054922;28;20546;-66
2023/03/21 00:07:46;;;;;;;11.13;4.82;;;9.20;99.90;;;;;;5073022;28;20115;-66
2023/03/21 00:10:12;;;;;;;8.82;4.60;;;9.20;99.90;;;;;;5072884;28;20036;-66
2023/03/21 00:12:39;;;;;;;7.35;4.82;;;9.20;99.90;;;;;;5072874;28;20127;-66
2023/03/21 00:15:06;;;;;;;8.90;4.82;;;9.20;99.90;;;;;;5072977;28;20068;-67
2023/03/21 00:17:32;;;;;;;8.10;4.35;;;9.20;99.90;;;;;;5073093;28;20071;-66
2023/03/21 00:19:59;;;;;;;8.38;4.38;;;9.20;99.90;;;;;;5072570;28;20080;-66
2023/03/21 00:22:26;;;;;;;10.70;5.10;;;9.20;99.90;;;;;;5072888;28;20475;-66
2023/03/21 00:24:52;;;;;;;8.98;5.10;;;9.30;99.90;;;;;;5072851;28;20044;-66
2023/03/21 00:27:21;;;;;;;9.93;5.22;;;9.30;99.90;;;;;;5072815;28;20416;-66
2023/03/21 00:29:50;;;;;;;9.15;4.38;;;9.30;99.90;;;;;;5072787;28;20079;-66
2023/03/21 00:32:17;;;;;;;9.82;5.30;;;9.20;99.90;;;;;;5072392;28;20079;-67
2023/03/21 00:34:43;;;;;;;14.82;5.28;;;9.30;99.90;;;;;;5054494;28;20091;-66
2023/03/21 00:37:11;;;;;;;12.85;5.53;;;9.20;99.90;;;;;;5072736;28;20068;-66
2023/03/21 00:39:37;;;;;;;12.93;5.28;;;9.20;99.90;;;;;;5072682;28;20071;-66
2023/03/21 00:42:03;;;;;;;15.93;6.55;;;9.20;99.90;;;;;;5054574;28;20041;-67
2023/03/21 00:44:35;;;;;;;14.80;6.28;;;9.20;99.90;;;;;;5071160;28;20399;-67
2023/03/21 00:47:02;;;;;;;10.57;6.70;;;9.30;99.90;;;;;;5072647;28;20400;-67
2023/03/21 00:49:32;;;;;;;13.27;6.68;;;9.20;99.90;;;;;;5072324;28;20040;-66
2023/03/21 00:52:01;;;;;;;14.57;6.83;;;9.30;99.90;;;;;;5072433;28;20048;-66
2023/03/21 00:54:27;;;;;;;16.88;7.25;;;9.30;99.90;;;;;;5054353;28;20279;-67
2023/03/21 00:56:52;;;;;;;16.48;7.20;;;9.30;99.90;;;;;;5074972;28;20105;-67
2023/03/21 00:59:18;;;;;;;18.50;7.55;;;9.30;99.90;;;;;;5076341;28;20045;-66
2023/03/21 01:01:45;;;;;;;13.48;7.90;;;9.30;99.90;;;;;;5075970;28;20094;-66
2023/03/21 01:04:13;;;;;;;14.52;7.40;;;9.30;99.90;;;;;;5057910;28;20053;-66
2023/03/21 01:06:41;;;;;;;13.00;6.45;;;9.30;99.90;;;;;;5076178;28;20411;-66
2023/03/21 01:09:12;;;;;;;15.00;7.32;;;9.20;99.90;;;;;;5076217;28;20044;-66
2023/03/21 01:11:37;;;;;;;14.38;7.20;;;9.30;99.90;;;;;;5075743;28;20036;-66
2023/03/21 01:14:03;;;;;;;17.80;7.40;;;9.30;99.90;;;;;;5076066;28;20047;-67
2023/03/21 01:16:29;;;;;;;13.80;6.90;;;9.30;99.90;;;;;;5075949;28;20103;-66
2023/03/21 01:18:55;;;;;;;17.70;8.20;;;9.30;99.90;;;;;;5076006;28;20133;-66
2023/03/21 01:21:21;;;;;;;13.02;6.93;;;9.30;99.90;;;;;;5057782;28;20377;-66
2023/03/21 01:23:47;;;;;;;15.52;7.55;;;9.20;99.90;;;;;;5075889;28;20090;-66
2023/03/21 01:26:13;;;;;;;13.48;7.68;;;9.30;99.90;;;;;;5075885;28;20045;-67
2023/03/21 01:28:41;;;;;;;14.48;7.95;;;9.30;99.90;;;;;;5057600;28;20041;-67
2023/03/21 01:31:10;;;;;;;15.38;7.65;;;9.30;99.90;;;;;;5075385;28;20080;-66
2023/03/21 01:33:35;;;;;;;16.60;7.53;;;9.30;99.90;;;;;;5057871;28;20040;-66
2023/03/21 01:36:01;;;;;;;16.08;7.18;;;9.30;99.90;;;;;;5074173;28;20039;-67
2023/03/21 01:38:27;;;;;;;12.55;7.45;;;9.80;99.90;;;;;;5075674;28;20033;-66
2023/03/21 01:40:53;;;;;;;14.35;6.78;;;9.30;99.90;;;;;;5075266;28;20036;-66
2023/03/21 01:43:18;;;;;;;13.80;6.75;;;9.30;99.90;;;;;;5075560;28;20098;-66
2023/03/21 01:46:09;;;;;;;13.25;7.82;;;9.30;99.90;;;;;;5075247;28;20047;-67
2023/03/21 01:48:38;;;;;;;10.87;6.17;;;9.30;99.90;;;;;;5075145;28;20041;-66
2023/03/21 01:51:04;;;;;;;14.85;6.28;;;9.30;99.90;;;;;;5075346;28;20381;-66
2023/03/21 01:53:33;;;;;;;11.90;6.53;;;9.30;99.90;;;;;;5057305;28;20036;-66
2023/03/21 01:56:22;;;;;;;9.73;5.57;;;10.40;99.90;;;;;;5057131;28;20032;-66
2023/03/21 01:58:49;;;;;;;11.40;6.15;;;9.30;99.90;;;;;;5075018;28;20046;-67
2023/03/21 02:01:15;;;;;;;13.15;6.10;;;9.30;99.90;;;;;;5075232;28;20036;-66
2023/03/21 02:03:50;;;;;;;13.35;6.90;;;9.70;99.90;;;;;;5074902;28;20060;-67
2023/03/21 02:06:35;;;;;;;11.20;5.78;;;9.70;99.90;;;;;;5074848;28;20052;-67
2023/03/21 02:09:03;;;;;;;13.05;6.30;;;9.30;99.90;;;;;;5075065;28;20063;-66
2023/03/21 02:11:31;;;;;;;11.85;5.88;;;9.40;99.90;;;;;;5074895;28;20395;-67
2023/03/21 02:13:57;;;;;;;11.50;6.00;;;9.10;99.90;;;;;;5074769;28;20072;-67
2023/03/21 02:16:34;;;;;;;10.07;6.18;;;9.30;99.90;;;;;;5074971;28;20051;-67
2023/03/21 02:19:05;;;;;;;13.32;5.97;;;9.40;99.90;;;;;;5074940;28;20045;-67
2023/03/21 02:21:50;;;;;;;12.45;6.45;;;9.40;99.90;;;;;;5074457;28;20055;-67
2023/03/21 02:24:15;;;;;;;10.90;6.05;;;9.40;99.90;;;;;;5074777;28;20045;-66
2023/03/21 02:27:06;;;;;;;11.20;5.95;;;9.30;99.90;;;;;;5056511;28;20143;-67
2023/03/21 02:29:51;;;;;;;11.20;6.07;;;9.40;99.90;;;;;;5074360;28;20158;-66
2023/03/21 02:32:36;;;;;;;11.43;6.07;;;9.30;99.90;;;;;;5074610;28;20381;-66
2023/03/21 02:35:23;;;;;;;11.45;6.30;;;9.30;99.90;;;;;;5074554;28;20384;-66
2023/03/21 02:38:09;;;;;;;14.57;5.65;;;9.40;99.90;;;;;;5074477;28;20431;-67
2023/03/21 02:41:01;;;;;;;11.57;6.20;;;9.40;99.90;;;;;;5056483;28;20032;-66
2023/03/21 02:43:35;;;;;;;14.10;6.38;;;9.20;99.90;;;;;;5073535;28;20083;-66
2023/03/21 02:46:33;;;;;;;9.90;5.38;;;9.40;99.90;;;;;;5074371;28;20028;-66
2023/03/21 02:49:09;;;;;;;10.38;6.03;;;9.40;99.90;;;;;;5068332;28;20048;-68
2023/03/21 02:51:38;;;;;;;11.68;5.78;;;9.40;99.90;;;;;;5055878;28;20045;-68
2023/03/21 02:54:08;;;;;;;8.13;5.53;;;9.00;99.90;;;;;;5074190;28;20037;-66
2023/03/21 02:56:35;;;;;;;10.48;5.85;;;9.40;99.90;;;;;;5074103;28;20115;-66
2023/03/21 02:59:04;;;;;;;11.60;5.80;;;9.40;99.90;;;;;;5074061;28;20044;-66
2023/03/21 03:01:31;;;;;;;10.38;5.40;;;9.40;99.90;;;;;;5073993;28;20040;-66
2023/03/21 03:03:57;;;;;;;11.43;5.20;;;9.40;99.90;;;;;;5073727;28;20238;-67
2023/03/21 03:06:45;;;;;;;11.13;5.93;;;9.40;99.90;;;;;;5073954;28;20079;-67
2023/03/21 03:09:56;;;;;;;11.88;6.22;;;9.40;99.90;;;;;;5059248;28;20075;-66
2023/03/21 03:12:47;;;;;;;9.98;5.45;;;9.40;99.90;;;;;;5073379;28;20075;-68
2023/03/21 03:15:35;;;;;;;15.15;5.70;;;9.40;99.90;;;;;;5073801;28;20037;-66
2023/03/21 03:18:09;;;;;;;9.10;5.32;;;9.40;99.90;;;;;;5073650;28;20049;-67
2023/03/21 03:21:06;;;;;;;7.80;4.95;;;9.30;99.90;;;;;;5055172;28;20041;-66
2023/03/21 03:23:51;;;;;;;9.30;4.65;;;9.30;99.90;;;;;;5073573;28;20115;-67
2023/03/21 03:26:35;;;;;;;11.50;5.80;;;9.40;99.90;;;;;;5073589;28;20122;-66
2023/03/21 03:29:07;;;;;;;10.02;5.35;;;9.30;99.90;;;;;;5073580;28;20444;-66
2023/03/21 03:31:44;;;;;;;8.77;5.03;;;9.30;99.90;;;;;;5073342;28;20409;-66
2023/03/21 03:34:15;;;;;;;8.45;4.88;;;9.40;99.90;;;;;;5073422;28;20403;-66
2023/03/21 03:36:46;;;;;;;11.20;5.75;;;9.40;99.90;;;;;;5073426;28;20044;-66
2023/03/21 03:39:13;;;;;;;10.15;5.05;;;9.40;99.90;;;;;;5073405;28;20418;-67
2023/03/21 03:42:02;;;;;;;11.13;5.40;;;9.30;99.90;;;;;;5073263;28;20040;-66
2023/03/21 03:44:28;;;;;;;10.60;5.60;;;9.40;99.90;;;;;;5073316;28;20136;-67
2023/03/21 03:47:10;;;;;;;11.32;6.15;;;9.40;99.90;;;;;;5055129;28;20545;-66
2023/03/21 03:49:48;;;;;;;8.02;4.45;;;9.30;99.90;;;;;;5073224;28;20098;-67
2023/03/21 03:52:40;;;;;;;9.13;5.30;;;9.40;99.90;;;;;;5073159;28;20153;-67
2023/03/21 03:55:06;;;;;;;9.45;4.93;;;9.40;99.90;;;;;;5072858;28;20040;-66
2023/03/21 03:57:32;;;;;;;9.93;5.78;;;9.40;99.90;;;;;;5072833;28;20042;-66
2023/03/21 03:59:58;;;;;;;11.00;5.03;;;9.30;99.90;;;;;;5072815;28;20043;-67
2023/03/21 04:02:23;;;;;;;10.35;4.75;;;9.40;99.90;;;;;;5072810;28;20107;-67
2023/03/21 04:04:51;;;;;;;8.23;4.88;;;9.30;99.90;;;;;;5071375;28;20135;-67
2023/03/21 04:07:20;;;;;;;7.75;4.30;;;9.90;99.90;;;;;;5072998;28;20044;-67
2023/03/21 04:09:45;;;;;;;9.35;4.70;;;9.10;99.90;;;;;;5038164;28;20046;-67
2023/03/21 04:12:12;;;;;;;10.75;5.03;;;9.40;99.90;;;;;;5072621;28;20422;-67
2023/03/21 04:14:38;;;;;;;6.95;4.13;;;9.40;99.90;;;;;;5072689;28;20128;-66
2023/03/21 04:17:03;;;;;;;8.70;4.68;;;9.30;99.90;;;;;;5072898;28;20068;-66
2023/03/21 04:19:29;;;;;;;8.27;4.63;;;9.40;99.90;;;;;;5072867;28;20119;-66
2023/03/21 04:21:54;;;;;;;7.72;4.32;;;9.30;99.90;;;;;;5071613;28;20559;-66
2023/03/21 04:24:21;;;;;;;10.70;4.72;;;9.30;99.90;;;;;;5072874;28;20059;-66
2023/03/21 04:26:46;;;;;;;6.68;4.00;;;9.30;99.90;;;;;;5072866;28;20041;-66
2023/03/21 04:29:12;;;;;;;8.32;4.07;;;9.30;99.90;;;;;;5072541;28;20532;-67
2023/03/21 04:31:40;;;;;;;7.55;4.32;;;9.30;99.90;;;;;;5076279;28;20484;-67
2023/03/21 04:34:08;;;;;;;10.85;4.03;;;9.30;99.90;;;;;;5076883;28;20036;-66
2023/03/21 04:36:42;;;;;;;7.93;4.15;;;9.30;99.90;;;;;;5076529;28;20522;-66
2023/03/21 04:39:11;;;;;;;6.80;3.55;;;9.30;99.90;;;;;;5076483;28;20044;-67
2023/03/21 04:41:41;;;;;;;7.30;4.43;;;9.30;99.90;;;;;;5076419;28;20052;-66
2023/03/21 04:44:07;;;;;;;8.43;4.35;;;9.30;99.90;;;;;;5076649;28;20040;-66
2023/03/21 04:46:34;;;;;;;8.93;4.35;;;9.30;99.90;;;;;;5076303;28;20036;-66
2023/03/21 04:49:00;;;;;;;8.25;4.03;;;9.30;99.90;;;;;;5076518;28;20045;-66
2023/03/21 04:51:25;;;;;;;8.63;4.57;;;9.30;99.90;;;;;;5041515;28;20055;-67
2023/03/21 04:53:56;;;;;;;11.23;5.13;;;9.30;99.90;;;;;;5076410;28;20033;-67
2023/03/21 04:56:32;;;;;;;7.88;4.72;;;9.30;99.90;;;;;;5058134;28;20036;-67
2023/03/21 04:59:00;;;;;;;9.55;4.70;;;9.30;99.90;;;;;;5041562;28;20045;-67
2023/03/21 05:01:29;;;;;;;9.60;4.47;;;9.30;99.90;;;;;;5076312;28;20476;-67
2023/03/21 05:03:56;;;;;;;10.52;5.07;;;9.30;99.90;;;;;;5075963;28;20056;-67
2023/03/21 05:06:22;;;;;;;9.25;4.40;;;9.30;99.90;;;;;;5076176;28;20080;-67
2023/03/21 05:08:47;;;;;;;7.55;4.22;;;9.30;99.90;;;;;;5074684;28;20044;-66
2023/03/21 05:11:13;;;;;;;8.45;4.55;;;9.30;99.90;;;;;;5076093;28;20047;-67
2023/03/21 05:13:38;;;;;;;6.40;4.28;;;9.20;99.90;;;;;;5075731;28;20480;-66
2023/03/21 05:16:04;;;;;;;8.10;4.68;;;9.30;99.90;;;;;;5076105;28;20070;-66
2023/03/21 05:18:33;;;;;;;10.75;5.03;;;9.30;99.90;;;;;;5075976;28;20036;-68
2023/03/21 05:20:59;;;;;;;6.53;4.15;;;9.30;99.90;;;;;;5075968;28;20052;-67
2023/03/21 05:23:24;;;;;;;9.27;4.53;;;9.30;99.90;;;;;;5074428;28;20488;-67
2023/03/21 05:25:50;;;;;;;9.82;4.72;;;9.30;99.90;;;;;;5075830;28;20047;-67
2023/03/21 05:28:18;;;;;;;7.80;4.53;;;9.30;99.90;;;;;;5075815;28;20045;-67
2023/03/21 05:30:45;;;;;;;8.07;4.82;;;9.30;99.90;;;;;;5075779;28;20423;-67
2023/03/21 05:33:11;;;;;;;6.45;4.22;;;9.30;99.90;;;;;;5075801;28;20037;-67
2023/03/21 05:35:38;;;;;;;10.02;4.55;;;9.30;99.90;;;;;;5075468;28;20484;-67
2023/03/21 05:38:03;;;;;;;9.15;4.68;;;9.30;99.90;;;;;;5075584;28;20037;-67
2023/03/21 05:40:29;;;;;;;8.75;4.47;;;9.30;99.90;;;;;;5075582;28;20061;-67
2023/03/21 05:42:55;;;;;;;9.77;4.93;;;9.20;99.90;;;;;;5073407;28;20484;-68
2023/03/21 05:45:20;;;;;;;10.48;5.10;;;9.20;99.90;;;;;;5075518;28;20491;-67
2023/03/21 05:47:46;;;;;;;7.45;4.57;;;9.30;99.90;;;;;;5075461;28;20029;-67
2023/03/21 05:50:12;;;;;;;9.05;4.50;;;9.30;99.90;;;;;;5075151;28;20492;-67
2023/03/21 05:52:38;;;;;;;8.10;4.57;;;9.30;99.90;;;;;;5075362;28;20048;-67
2023/03/21 05:55:04;;;;;;;13.45;5.90;;;9.30;99.90;;;;;;5075033;28;20051;-68
2023/03/21 05:57:33;;;;;;;10.60;5.47;;;9.30;99.90;;;;;;5074969;28;20032;-67
2023/03/21 06:00:00;;;;;;;9.75;5.30;;;9.20;99.90;;;;;;5057346;28;20045;-68
2023/03/21 06:02:26;;;;;;;8.07;5.25;;;9.30;99.90;;;;;;5057172;28;20044;-67
2023/03/21 06:04:51;;;;;;;9.75;5.82;;;9.30;99.90;;;;;;5074703;28;20534;-67
2023/03/21 06:07:17;;;;;;;10.15;5.53;;;9.20;99.90;;;;;;5075130;28;20115;-68
2023/03/21 06:09:42;;;;;;;12.45;5.82;;;9.20;99.90;;;;;;5075057;28;20472;-67
2023/03/21 06:12:08;;;;;;;9.02;4.57;;;9.30;99.90;;;;;;5074934;28;20076;-68
2023/03/21 06:14:34;;;;;;;11.23;5.40;;;10.30;99.90;;;;;;5056740;28;20041;-69
2023/03/21 06:17:00;;;;;;;10.15;5.43;;;9.20;99.90;;;;;;5074985;28;20403;-67
2023/03/21 06:19:25;;;;;;;9.10;5.45;;;9.20;99.90;;;;;;5074787;28;20044;-68
2023/03/21 06:21:51;;;;;;;10.02;5.32;;;9.30;99.90;;;;;;5056865;28;20063;-68
2023/03/21 06:24:16;;;;;;;11.63;5.72;;;9.30;99.90;;;;;;5073307;28;20072;-67
2023/03/21 06:26:43;;;;;;;8.35;5.78;;;9.30;99.90;;;;;;5074418;28;20044;-66
2023/03/21 06:29:09;;;;;;;11.05;5.53;;;10.10;99.90;;;;;;5074703;28;20103;-67
2023/03/21 06:31:35;;;;;;;9.80;6.00;;;9.30;99.90;;;;;;5074486;28;20157;-68
2023/03/21 06:34:01;;;;;;;12.52;6.00;;;9.90;99.90;;;;;;5074614;28;20510;-66
2023/03/21 06:36:26;;;;;;;8.65;5.63;;;9.30;99.90;;;;;;5056457;28;20098;-66
2023/03/21 06:38:52;;;;;;;11.32;5.78;;;9.30;99.90;;;;;;5074244;28;20399;-66
2023/03/21 06:41:17;;;;;;;12.82;6.85;;;9.30;99.90;;;;;;5072952;28;20061;-66
2023/03/21 06:43:44;;;;;;;10.38;5.95;;;9.30;99.90;;;;;;5074010;28;20050;-66
2023/03/21 06:46:10;;;;;;;9.93;5.95;;;9.30;99.90;;;;;;5074321;28;20119;-66
2023/03/21 06:48:38;;;;;;;9.40;6.75;;;9.30;99.90;;;;;;5056055;28;20137;-66
2023/03/21 06:51:04;;;;;;;10.50;5.25;;;9.30;99.90;;;;;;5074158;28;20120;-65
2023/03/21 06:53:31;;;;;;;9.70;5.40;;;9.30;99.90;;;;;;5073251;28;20065;-66
2023/03/21 06:55:57;;;;;;;11.25;6.30;;;9.30;99.90;;;;;;5074045;28;20113;-66
2023/03/21 06:58:22;;;;;;;11.40;6.15;;;9.40;99.90;;;;;;5056263;28;20434;-68
2023/03/21 07:00:48;;;;;;;10.15;6.15;;;9.40;99.90;;;;;;5074050;28;20495;-68
2023/03/21 07:03:14;;;;;;;9.90;5.75;;;9.40;99.90;;;;;;5073769;28;20090;-66
2023/03/21 07:05:40;;;;;;;9.23;5.40;;;9.40;99.90;;;;;;5073752;28;20044;-66
2023/03/21 07:08:12;;;;;;;11.05;6.10;;;9.40;99.90;;;;;;5073891;28;20044;-66
2023/03/21 07:10:43;;;;;;;10.07;5.70;;;9.40;99.90;;;;;;5073776;28;20515;-66
2023/03/21 07:13:09;;;;;;;10.70;5.60;;;9.40;99.90;;;;;;5073841;28;20115;-66
2023/03/21 07:15:36;;;;;;;10.93;6.20;;;9.40;99.90;;;;;;5073793;28;20140;-67
2023/03/21 07:18:04;;;;;;;7.88;4.82;;;9.40;99.90;;;;;;5055790;28;20050;-67
2023/03/21 07:20:30;;;;;;;8.23;4.75;;;9.50;99.90;;;;;;5073514;28;20047;-66
2023/03/21 07:22:56;;;;;;;8.30;4.88;;;9.50;99.90;;;;;;5073647;28;20041;-67
2023/03/21 07:25:22;;;;;;;8.55;4.40;;;9.50;99.90;;;;;;5073248;28;20033;-66
2023/03/21 07:27:47;;;;;;;8.70;5.05;;;9.50;99.90;;;;;;5073515;28;20090;-67
2023/03/21 07:30:14;;;;;;;8.30;4.85;;;9.50;99.90;;;;;;5073534;28;20468;-67
2023/03/21 07:32:40;;;;;;;9.13;4.68;;;9.50;99.90;;;;;;5073044;28;20055;-67
2023/03/21 07:35:07;;;;;;;10.57;4.95;;;9.50;99.90;;;;;;5073097;28;20039;-67
2023/03/21 07:37:33;;;;;;;7.38;4.53;;;9.60;99.90;;;;;;5073087;28;20037;-67
2023/03/21 07:39:58;;;;;;;8.63;4.40;;;9.60;99.90;;;;;;5073094;28;20032;-67
2023/03/21 07:42:24;;;;;;;5.82;4.18;;;9.70;99.90;;;;;;5073386;28;20090;-67
2023/03/21 07:44:51;;;;;;;8.13;4.30;;;9.70;99.90;;;;;;5055017;28;20052;-67
2023/03/21 07:47:17;;;;;;;5.65;3.53;;;9.70;99.90;;;;;;5073318;28;20051;-67
2023/03/21 07:49:42;;;;;;;6.00;2.95;;;9.70;99.90;;;;;;5073255;28;20036;-67
2023/03/21 07:52:08;;;;;;;5.50;3.35;;;9.70;99.90;;;;;;5071626;28;20082;-67
2023/03/21 07:54:33;;;;;;;6.20;3.17;;;9.70;99.90;;;;;;5073140;28;20468;-67
2023/03/21 07:56:59;;;;;;;5.40;3.45;;;9.70;99.90;;;;;;5073204;28;20041;-67
2023/03/21 07:59:25;;;;;;;7.80;3.45;;;9.80;99.90;;;;;;5073145;28;20509;-67
2023/03/21 08:01:50;;;;;;;6.47;3.45;;;9.70;99.90;;;;;;5072730;28;20169;-67
2023/03/21 08:04:16;;;;;;;5.00;3.28;;;9.70;99.90;;;;;;5072713;28;20057;-67
2023/03/21 08:06:42;;;;;;;4.13;2.85;;;9.70;99.90;;;;;;5072863;28;20487;-67
2023/03/21 08:09:08;;;;;;;5.32;3.28;;;10.10;99.90;;;;;;5073051;28;20086;-67
2023/03/21 08:11:33;;;;;;;7.20;3.25;;;9.70;99.90;;;;;;5072881;28;20448;-68
2023/03/21 08:14:00;;;;;;;4.60;3.00;;;9.80;99.90;;;;;;5073089;28;20434;-67
2023/03/21 08:16:26;;;;;;;7.07;3.33;;;9.70;99.90;;;;;;5073031;28;20487;-67
2023/03/21 08:18:52;;;;;;;5.47;3.70;;;9.80;99.90;;;;;;5072575;28;20035;-67
2023/03/21 08:21:17;;;;;;;6.13;3.22;;;9.70;99.90;;;;;;5072930;28;20119;-67
2023/03/21 08:23:43;;;;;;;4.40;2.83;;;9.70;99.90;;;;;;5072823;28;20464;-66
2023/03/21 08:26:09;;;;;;;5.88;4.03;;;9.70;99.90;;;;;;5072886;28;20039;-66
2023/03/21 08:28:35;;;;;;;5.88;3.17;;;9.80;99.90;;;;;;5072849;28;20041;-68
2023/03/21 08:31:10;;;;;;;7.15;4.15;;;9.70;99.90;;;;;;5072531;28;20072;-67
2023/03/21 08:33:36;;;;;;;9.18;3.08;;;9.70;99.90;;;;;;5072797;28;20068;-66
2023/03/21 08:36:03;;;;;;;5.20;2.92;;;9.80;99.90;;;;;;5054800;28;20067;-67
2023/03/21 08:38:30;;;;;;;6.15;3.92;;;9.80;99.90;;;;;;5072861;28;20029;-67
2023/03/21 08:40:56;;;;;;;6.85;3.70;;;9.80;99.90;;;;;;5072732;28;20040;-67
2023/03/21 08:43:22;;;;;;;6.82;3.63;;;9.80;99.90;;;;;;5072667;28;20067;-67
2023/03/21 08:45:48;;;;;;;5.75;3.47;;;9.80;99.90;;;;;;5072334;28;20044;-67
2023/03/21 08:48:14;;;;;;;5.80;3.88;;;9.80;99.90;;;;;;5072592;28;20461;-67
2023/03/21 08:50:40;;;;;;;5.78;3.80;;;9.80;99.90;;;;;;5072248;28;20076;-67
2023/03/21 08:53:05;;;;;;;4.97;3.10;;;9.80;99.90;;;;;;5054640;28;20115;-67
2023/03/21 08:55:32;;;;;;;5.18;3.13;;;9.90;99.90;;;;;;5072550;28;20054;-67
2023/03/21 08:57:58;;;;;;;6.60;3.85;;;9.90;99.90;;;;;;5072546;28;20036;-67
2023/03/21 09:00:24;;;;;;;7.65;4.13;;;10.20;99.90;;;;;;5072191;28;20116;-67
2023/03/21 09:02:51;;;;;;;8.07;3.55;;;9.90;99.90;;;;;;5072499;28;20508;-67
2023/03/21 09:05:17;;;;;;;6.80;4.18;;;9.90;99.90;;;;;;5072104;28;20056;-66
2023/03/21 09:07:43;;;;;;;5.28;3.58;;;9.90;99.90;;;;;;5054453;28;20547;-67
2023/03/21 09:10:15;;;;;;;9.05;3.78;;;9.90;99.90;;;;;;5072185;28;20377;-67
2023/03/21 09:12:41;;;;;;;7.22;4.05;;;9.90;99.90;;;;;;5072232;28;20045;-66
2023/03/21 09:15:11;;;;;;;7.65;4.10;;;9.90;99.90;;;;;;5072410;28;20055;-67
2023/03/21 09:17:41;;;;;;;6.93;4.05;;;10.00;99.90;;;;;;5074075;28;20037;-67
2023/03/21 09:20:17;;;;;;;5.67;3.50;;;9.90;99.90;;;;;;5075997;28;20037;-67
2023/03/21 09:22:47;;;;;;;7.32;4.05;;;10.00;99.90;;;;;;5075873;28;20032;-67
2023/03/21 09:25:17;;;;;;;7.30;4.30;;;9.90;99.90;;;;;;5075874;28;20422;-67
2023/03/21 09:27:44;;;;;;;9.40;4.82;;;10.00;99.90;;;;;;5075753;28;20278;-67
2023/03/21 09:30:12;;;;;;;10.02;4.57;;;9.90;99.90;;;;;;5075535;28;20041;-67
2023/03/21 09:32:37;;;;;;;8.85;4.75;;;9.90;99.90;;;;;;5075669;28;20053;-67
2023/03/21 09:35:06;;;;;;;9.60;5.20;;;10.00;99.90;;;;;;5075738;28;20372;-67
2023/03/21 09:37:32;;;;;;;6.82;4.38;;;10.00;99.90;;;;;;5075386;28;20032;-67
2023/03/21 09:39:58;;;;;;;8.45;5.53;;;10.00;99.90;;;;;;5075679;28;20079;-67
2023/03/21 09:42:45;;;;;;;10.18;6.03;;;9.90;99.90;;;;;;5075374;28;20047;-67
2023/03/21 09:45:11;;;;;;;9.40;4.82;;;9.90;99.90;;;;;;5075575;28;20049;-67
2023/03/21 09:47:52;;;;;;;10.32;5.82;;;9.90;99.90;;;;;;5075222;28;20047;-68
2023/03/21 09:50:30;;;;;;;14.80;5.82;;;9.90;99.90;;;;;;5075251;28;20240;-67
2023/03/21 09:53:00;;;;;;;9.90;6.13;;;9.90;99.90;;;;;;5075402;28;20052;-67
2023/03/21 09:55:34;;;;;;;13.02;5.78;;;9.90;99.90;;;;;;5075436;28;20072;-69
2023/03/21 09:58:15;;;;;;;14.45;6.70;;;9.90;99.90;;;;;;5075378;28;20484;-67
2023/03/21 10:00:44;;;;;;;;;;;9.90;99.90;;;;;;5075441;28;20047;-67
2023/03/21 10:03:23;;;;;;;7.25;5.28;;;9.90;99.90;;;;;;5074992;28;19916;-66
2023/03/21 10:05:51;;;;;;;12.20;7.07;;;9.80;99.90;;;;;;5075163;28;20048;-67
2023/03/21 10:08:21;;;;;;;11.80;5.97;;;9.80;99.90;;;;;;5075133;28;20040;-67
2023/03/21 10:10:54;;;;;;;13.18;7.15;;;10.90;99.90;;;;;;5075042;28;20055;-67
2023/03/21 10:13:28;;;;;;;11.57;5.68;;;9.70;99.90;;;;;;5075026;28;20048;-67
2023/03/21 10:16:08;;;;;;;10.43;5.65;;;9.70;99.90;;;;;;5074941;28;20036;-68
2023/03/21 10:18:36;;;;;;;13.85;6.38;;;9.70;99.90;;;;;;5074912;28;20147;-68
2023/03/21 10:21:03;;;;;;;11.70;5.78;;;9.70;99.90;;;;;;5074892;28;20345;-67
2023/03/21 10:23:29;;;;;;;11.57;5.72;;;9.60;99.90;;;;;;5074799;28;20040;-67
2023/03/21 10:25:58;;;;;;;9.45;5.57;;;9.60;99.90;;;;;;5074732;28;20040;-68
2023/03/21 10:28:29;;;;;;;11.52;5.72;;;10.10;99.90;;;;;;5074594;28;20068;-68
2023/03/21 10:30:57;;;;;;;8.38;5.30;;;9.60;99.90;;;;;;5074660;28;20051;-68
2023/03/21 10:33:26;;;;;;;9.80;5.57;;;9.60;99.90;;;;;;5074690;28;20039;-67
2023/03/21 10:35:59;;;;;;;11.13;5.68;;;9.60;99.90;;;;;;5074579;28;20079;-67
2023/03/21 10:38:26;;;;;;;9.25;5.55;;;9.60;99.90;;;;;;5074582;28;20476;-68
2023/03/21 10:40:52;;;;;;;8.18;5.68;;;9.70;99.90;;;;;;5074642;28;20033;-67
2023/03/21 10:43:28;;;;;;;10.82;5.93;;;9.70;99.90;;;;;;5074157;28;20037;-67
2023/03/21 10:45:55;;;;;;;8.77;5.80;;;9.70;99.90;;;;;;5074448;28;20466;-67
2023/03/21 10:48:22;;;;;;;9.18;5.35;;;9.70;99.90;;;;;;5074328;28;20040;-67
2023/03/21 10:50:52;;;;;;;7.85;5.28;;;9.80;99.90;;;;;;5073926;28;20079;-67
2023/03/21 10:53:26;;;;;;;9.00;5.75;;;9.70;99.90;;;;;;5074250;28;20076;-67
2023/03/21 10:55:54;;;;;;;9.63;5.57;;;9.80;99.90;;;;;;5073923;28;20082;-67
2023/03/21 10:58:26;;;;;;;10.25;5.40;;;9.90;99.90;;;;;;5074204;28;20395;-67
2023/03/21 11:00:59;;;;;;;10.40;5.70;;;9.80;99.90;;;;;;5074412;28;20047;-67
2023/03/21 11:03:42;;;;;;;11.40;5.70;;;9.80;99.90;;;;;;5073847;28;20059;-66
2023/03/21 11:06:21;;;;;;;9.77;5.28;;;9.90;99.90;;;;;;5074048;28;20051;-67
2023/03/21 11:08:52;;;;;;;9.23;5.10;;;10.00;99.90;;;;;;5056049;28;20051;-67
2023/03/21 11:11:26;;;;;;;10.43;5.20;;;10.00;99.90;;;;;;5073796;28;20051;-67
2023/03/21 11:14:00;;;;;;;7.82;5.10;;;10.10;99.90;;;;;;5073575;28;20044;-67
2023/03/21 11:16:43;;;;;;;11.57;5.35;;;10.10;99.90;;;;;;5073792;28;20371;-66
2023/03/21 11:19:17;;;;;;;10.15;5.63;;;10.30;99.90;;;;;;5073810;28;20036;-67
2023/03/21 11:21:44;;;;;;;11.48;5.20;;;10.40;99.90;;;;;;5073392;28;20127;-67
2023/03/21 11:24:19;;;;;;;8.38;4.63;;;10.50;99.90;;;;;;5073662;28;20078;-67
2023/03/21 11:26:48;;;;;;;11.43;5.40;;;10.60;99.90;;;;;;5073515;28;20072;-67
2023/03/21 11:29:27;;;;;;;10.60;5.80;;;10.70;99.90;;;;;;5073283;28;20040;-68
2023/03/21 11:31:58;;;;;;;9.85;5.85;;;10.80;99.90;;;;;;5073437;28;20049;-67
2023/03/21 11:35:04;;;;;;;12.55;6.15;;;10.90;99.90;;;;;;5073484;28;20043;-67
2023/03/21 11:37:38;;;;;;;10.00;5.22;;;10.90;99.90;;;;;;5072710;28;20465;-67
2023/03/21 11:40:28;;;;;;;7.05;4.85;;;10.90;99.90;;;;;;5072863;28;20041;-67
2023/03/21 11:42:55;;;;;;;12.60;5.68;;;11.00;99.90;;;;;;5073461;28;20459;-68
2023/03/21 11:45:31;;;;;;;13.23;5.88;;;11.10;99.90;;;;;;5073037;28;20079;-68
2023/03/21 11:47:59;;;;;;;10.43;5.53;;;11.10;99.90;;;;;;5073011;28;20040;-68
2023/03/21 11:50:39;;;;;;;7.97;5.47;;;11.20;99.90;;;;;;5072968;28;20033;-69
2023/03/21 11:53:27;;;;;;;11.23;5.50;;;11.00;99.90;;;;;;5072965;28;20048;-68
2023/03/21 11:56:17;;;;;;;8.25;5.65;;;11.00;99.90;;;;;;5038574;28;20491;-68
2023/03/21 11:59:14;;;;;;;8.15;4.47;;;11.10;99.90;;;;;;5073177;28;20112;-68
2023/03/21 12:02:09;;;;;;;8.63;5.50;;;11.20;99.90;;;;;;5073127;28;20395;-68
2023/03/21 12:04:41;;;;;;;7.40;5.28;;;11.10;99.90;;;;;;5054711;28;20102;-68
2023/03/21 12:07:31;;;;;;;7.75;5.50;;;11.00;99.90;;;;;;5072782;28;20041;-68
2023/03/21 12:10:07;;;;;;;7.72;4.03;;;11.10;99.90;;;;;;5073041;28;20040;-68
2023/03/21 12:12:48;;;;;;;9.13;5.30;;;11.10;99.90;;;;;;5072880;28;20052;-69
2023/03/21 12:15:51;;;;;;;9.68;5.18;;;11.10;99.90;;;;;;5054789;28;20083;-68
2023/03/21 12:18:19;;;;;;;12.45;5.13;;;11.10;99.90;;;;;;5073031;28;20040;-68
2023/03/21 12:20:56;;;;;;;7.60;4.53;;;11.10;99.90;;;;;;5072915;28;20056;-68
2023/03/21 12:23:48;;;;;;;7.95;4.88;;;11.20;99.90;;;;;;5072662;28;20403;-68
2023/03/21 12:26:28;;;;;;;7.65;4.30;;;11.30;99.90;;;;;;5072865;28;20079;-68
2023/03/21 12:29:22;;;;;;;5.82;3.72;;;11.50;99.90;;;;;;5072826;28;20430;-68
2023/03/21 12:31:59;;;;;;;6.43;4.38;;;11.50;99.90;;;;;;5072637;28;20044;-68
2023/03/21 12:34:44;;;;;;;8.68;3.70;;;;;;;;;;5072843;28;20472;-68
2023/03/21 12:37:16;;;;;;;11.23;4.25;;;11.60;99.90;;;;;;5072770;28;20058;-68
2023/03/21 12:39:46;;;;;;;8.48;4.38;;;11.60;99.90;;;;;;5072721;28;20434;-67
2023/03/21 12:42:12;;;;;;;7.68;3.95;;;11.60;99.90;;;;;;5072759;28;20076;-68
2023/03/21 12:44:59;;;;;;;5.68;3.72;;;11.50;99.90;;;;;;5072654;28;20450;-68
2023/03/21 12:47:28;;;;;;;6.63;3.80;;;11.40;99.90;;;;;;5072689;28;20112;-67
2023/03/21 12:50:02;;;;;;;6.72;4.15;;;11.40;99.90;;;;;;5072755;28;20458;-68
2023/03/21 12:52:50;;;;;;;7.03;3.35;;;11.30;99.90;;;;;;5074108;28;20040;-67
2023/03/21 12:55:25;;;;;;;9.15;3.85;;;11.20;99.90;;;;;;5076446;28;20111;-67
2023/03/21 12:58:01;;;;;;;9.05;4.07;;;11.30;99.90;;;;;;5076186;28;20037;-67
2023/03/21 13:00:41;;;;;;;5.82;3.35;;;11.30;99.90;;;;;;5058466;28;20044;-67
2023/03/21 13:03:17;;;;;;;8.10;3.78;;;11.30;99.90;;;;;;5076263;28;20380;-66
2023/03/21 13:06:03;;;;;;;6.35;3.13;;;11.30;99.90;;;;;;5076238;28;20435;-67
2023/03/21 13:08:47;;;;;;;10.60;3.78;;;11.30;99.90;;;;;;5076167;28;20048;-67